Time;durP1;ratioP1;P1;durP2;ratioP2;P2;SDS_P1;SDS_P2;PMS_P1;PMS_P2;Temp;Humidity;BMP_temperature;BMP_pressure;BME280_temperature;BME280_humidity;BME280_pressure;Samples;Min_cycle;Max_cycle;Signal;HPM_P1;HPM_P2
2024/01/26 00:01:56;;;;;;;16.90;9.00;;;;;;;2.62;100.00;98339.73;106942;1280;23409;-87
2024/01/26 00:04:24;;;;;;;15.40;8.80;;;;;;;2.59;100.00;98343.13;107055;1278;22613;-86
2024/01/26 00:06:53;;;;;;;12.90;7.80;;;;;;;2.54;100.00;98351.48;106856;1280;25296;-86
2024/01/26 00:09:21;;;;;;;14.00;8.90;;;;;;;2.54;100.00;98353.61;106874;1270;24022;-87
2024/01/26 00:11:49;;;;;;;13.00;7.50;;;;;;;2.49;100.00;98362.39;106768;1280;23959;-89
2024/01/26 00:14:17;;;;;;;15.80;9.20;;;;;;;2.45;100.00;98354.33;106924;1280;22556;-87
2024/01/26 00:16:45;;;;;;;16.00;7.70;;;;;;;2.45;100.00;98353.86;106957;1279;22548;-85
2024/01/26 00:19:14;;;;;;;15.50;9.30;;;;;;;2.45;100.00;98359.39;106934;1278;22555;-85
2024/01/26 00:21:42;;;;;;;14.60;8.60;;;;;;;2.48;100.00;98362.48;106966;1281;22678;-87
2024/01/26 00:24:10;;;;;;;16.30;9.20;;;;;;;2.48;100.00;98368.61;106808;1278;22690;-83
2024/01/26 00:26:40;;;;;;;16.10;9.40;;;;;;;2.49;100.00;98370.58;106853;1280;25487;-85
2024/01/26 00:29:07;;;;;;;15.30;9.30;;;;;;;2.46;100.00;98371.06;107262;1281;24214;-85
2024/01/26 00:31:35;;;;;;;15.60;8.60;;;;;;;2.48;100.00;98373.44;106866;1273;26494;-87
2024/01/26 00:34:03;;;;;;;16.40;9.00;;;;;;;2.49;100.00;98371.91;106828;1272;22552;-85
2024/01/26 00:36:31;;;;;;;14.40;8.20;;;;;;;2.49;100.00;98373.88;106820;1278;23016;-87
2024/01/26 00:39:01;;;;;;;17.00;8.60;;;;;;;2.47;100.00;98371.23;106911;1280;24278;-88
2024/01/26 00:41:29;;;;;;;14.80;8.20;;;;;;;2.49;100.00;98376.23;106872;1281;25413;-86
2024/01/26 00:44:02;;;;;;;17.40;8.60;;;;;;;2.50;100.00;98369.98;106875;1266;22545;-86
2024/01/26 00:46:30;;;;;;;15.70;7.60;;;;;;;2.51;100.00;98371.80;107947;1278;22495;-92
2024/01/26 00:48:58;;;;;;;16.30;8.70;;;;;;;2.52;100.00;98372.88;107428;1278;22547;-83
2024/01/26 00:52:21;;;;;;;18.30;10.20;;;;;;;2.53;100.00;98374.13;107477;1280;23236;-86
2024/01/26 00:54:49;;;;;;;19.60;12.30;;;;;;;2.57;100.00;98369.88;107362;1280;24220;-82
2024/01/26 00:57:17;;;;;;;19.80;11.20;;;;;;;2.58;100.00;98383.80;107041;1280;22762;-83
2024/01/26 00:59:46;;;;;;;18.00;10.00;;;;;;;2.61;100.00;98381.63;106907;1280;22594;-81
2024/01/26 01:02:14;;;;;;;21.10;11.30;;;;;;;2.61;100.00;98388.14;106937;1280;22547;-81
2024/01/26 01:04:42;;;;;;;19.10;10.60;;;;;;;2.61;100.00;98391.46;106936;1273;22556;-84
2024/01/26 01:07:09;;;;;;;22.50;12.40;;;;;;;2.58;100.00;98392.38;106923;1267;22536;-82
2024/01/26 01:09:40;;;;;;;19.40;12.00;;;;;;;2.58;100.00;98400.30;106899;1271;22539;-80
2024/01/26 01:12:08;;;;;;;20.40;11.40;;;;;;;2.58;100.00;98410.04;106877;1279;22679;-79
2024/01/26 01:14:36;;;;;;;19.70;11.20;;;;;;;2.60;100.00;98417.79;106908;1281;22792;-79
2024/01/26 01:17:05;;;;;;;18.30;11.30;;;;;;;2.59;100.00;98420.75;107005;1269;24409;-80
2024/01/26 01:20:25;;;;;;;17.60;11.00;;;;;;;2.56;100.00;98423.92;107049;1280;22749;-79
2024/01/26 01:22:53;;;;;;;16.60;9.30;;;;;;;2.54;100.00;98426.29;106821;1281;22540;-80
2024/01/26 01:25:21;;;;;;;17.60;10.40;;;;;;;2.53;100.00;98425.00;106782;1278;25488;-80
2024/01/26 01:27:51;;;;;;;17.40;9.70;;;;;;;2.53;100.00;98426.27;106791;1269;22560;-82
2024/01/26 01:30:19;;;;;;;19.70;10.20;;;;;;;2.52;100.00;98424.05;106924;1277;22702;-77
2024/01/26 01:32:47;;;;;;;19.20;10.40;;;;;;;2.83;100.00;98422.29;106523;1279;22596;-81
2024/01/26 01:35:16;;;;;;;16.70;9.90;;;;;;;3.10;100.00;98420.45;107016;1280;25485;-80
2024/01/26 01:37:44;;;;;;;21.20;10.80;;;;;;;3.17;100.00;98422.91;106893;1273;22547;-86
2024/01/26 01:40:12;;;;;;;18.60;11.00;;;;;;;3.18;100.00;98420.16;106877;1280;25512;-83
2024/01/26 01:42:41;;;;;;;19.80;11.30;;;;;;;3.03;100.00;98418.56;106873;1281;22546;-82
2024/01/26 01:45:14;;;;;;;18.30;10.20;;;;;;;2.83;100.00;98407.34;106948;1266;24238;-82
2024/01/26 01:47:43;;;;;;;19.40;10.40;;;;;;;2.80;100.00;98416.55;106972;1269;25237;-82
2024/01/26 01:50:11;;;;;;;17.40;10.60;;;;;;;2.72;100.00;98411.27;106869;1280;22544;-80
2024/01/26 01:52:41;;;;;;;17.80;10.10;;;;;;;2.65;100.00;98405.45;107077;1267;25389;-84
2024/01/26 01:55:11;;;;;;;19.60;10.70;;;;;;;2.65;100.00;98411.63;106887;1275;25237;-84
2024/01/26 01:57:40;;;;;;;19.80;10.50;;;;;;;2.61;100.00;98412.48;106815;1281;24205;-85
2024/01/26 02:00:18;;;;;;;17.40;9.10;;;;;;;2.56;100.00;98411.33;106949;1280;22565;-86
2024/01/26 02:02:48;;;;;;;17.80;10.30;;;;;;;2.51;100.00;98411.96;106904;1279;24212;-86
2024/01/26 02:05:16;;;;;;;17.30;10.50;;;;;;;2.49;100.00;98414.23;106880;1281;23921;-86
2024/01/26 02:07:50;;;;;;;18.80;9.50;;;;;;;2.46;100.00;98419.48;106816;1281;24193;-88
2024/01/26 02:10:19;;;;;;;18.20;10.40;;;;;;;2.45;100.00;98421.45;106966;1281;25365;-87
2024/01/26 02:12:48;;;;;;;10.30;6.90;;;;;;;2.39;100.00;98419.77;106897;1280;22601;-86
2024/01/26 02:15:16;;;;;;;11.40;6.50;;;;;;;2.19;100.00;98417.60;106889;1280;22629;-85
2024/01/26 02:17:44;;;;;;;12.30;7.10;;;;;;;2.00;100.00;98416.36;106881;1280;22551;-89
2024/01/26 02:20:12;;;;;;;12.20;7.20;;;;;;;1.93;100.00;98424.02;107273;1273;22762;-87
2024/01/26 02:22:40;;;;;;;10.10;6.40;;;;;;;1.91;100.00;98423.47;106880;1277;22552;-86
2024/01/26 02:25:08;;;;;;;13.60;8.40;;;;;;;1.85;100.00;98420.95;106898;1281;22589;-86
2024/01/26 02:27:36;;;;;;;12.70;7.30;;;;;;;1.82;100.00;98421.20;106826;1280;24322;-86
2024/01/26 02:30:05;;;;;;;16.70;7.70;;;;;;;1.77;100.00;98422.45;106791;1280;22543;-85
2024/01/26 02:32:33;;;;;;;13.30;6.90;;;;;;;1.77;100.00;98421.89;106819;1280;24199;-86
2024/01/26 02:35:03;;;;;;;12.30;7.30;;;;;;;1.77;100.00;98425.86;106869;1280;22649;-84
2024/01/26 02:37:31;;;;;;;13.60;7.50;;;;;;;1.78;100.00;98428.86;106783;1280;22551;-84
2024/01/26 02:39:59;;;;;;;15.10;8.40;;;;;;;1.80;100.00;98426.14;106796;1271;22698;-84
2024/01/26 02:42:27;;;;;;;17.00;9.10;;;;;;;1.84;100.00;98427.26;106747;1281;22587;-85
2024/01/26 02:44:55;;;;;;;19.70;9.90;;;;;;;1.87;100.00;98425.78;106780;1281;24194;-85
2024/01/26 02:47:23;;;;;;;19.40;11.20;;;;;;;1.93;100.00;98426.51;106701;1281;25348;-85
2024/01/26 02:49:51;;;;;;;14.80;9.60;;;;;;;2.00;100.00;98431.77;106907;1281;22552;-85
2024/01/26 02:52:20;;;;;;;16.80;9.10;;;;;;;2.05;100.00;98441.64;108615;1281;22561;-84
2024/01/26 02:58:36;;;;;;;15.10;8.20;;;;;;;2.09;100.00;98440.02;106765;1275;25368;-85
2024/01/26 03:01:04;;;;;;;16.80;8.20;;;;;;;2.12;100.00;98444.43;106829;1278;22557;-87
2024/01/26 03:03:33;;;;;;;16.40;8.40;;;;;;;2.13;100.00;98442.08;106760;1279;24337;-87
2024/01/26 03:06:01;;;;;;;15.60;9.10;;;;;;;2.16;100.00;98447.41;106868;1274;26705;-85
2024/01/26 03:08:31;;;;;;;14.00;7.10;;;;;;;2.18;100.00;98451.82;106835;1276;22561;-83
2024/01/26 03:10:59;;;;;;;17.90;8.10;;;;;;;2.18;100.00;98452.79;106802;1281;23315;-84
2024/01/26 03:13:28;;;;;;;13.10;7.00;;;;;;;2.19;100.00;98453.74;106752;1272;22577;-84
2024/01/26 03:15:56;;;;;;;14.10;7.10;;;;;;;2.22;100.00;98455.15;106803;1280;22575;-90
2024/01/26 03:18:24;;;;;;;15.60;7.80;;;;;;;2.22;100.00;98458.23;106914;1270;22552;-87
2024/01/26 03:20:52;;;;;;;15.00;7.10;;;;;;;2.24;100.00;98458.08;106896;1281;22657;-87
2024/01/26 03:23:20;;;;;;;13.50;7.20;;;;;;;2.24;100.00;98454.36;106939;1269;24310;-88
2024/01/26 03:25:48;;;;;;;19.10;8.20;;;;;;;2.26;100.00;98453.61;106983;1280;25262;-87
2024/01/26 03:28:16;;;;;;;15.50;8.40;;;;;;;2.24;100.00;98457.19;107168;1281;22745;-88
2024/01/26 03:30:44;;;;;;;14.00;8.10;;;;;;;2.22;100.00;98452.17;107389;1274;22547;-88
2024/01/26 03:33:17;;;;;;;17.50;8.20;;;;;;;2.23;100.00;98459.95;106838;1281;25427;-88
2024/01/26 03:35:46;;;;;;;16.80;8.40;;;;;;;2.22;100.00;98459.83;106919;1281;24240;-88
2024/01/26 03:38:15;;;;;;;15.40;8.70;;;;;;;2.20;100.00;98465.97;106772;1273;22586;-85
2024/01/26 03:40:43;;;;;;;15.00;7.80;;;;;;;2.19;100.00;98467.73;106879;1280;24452;-87
2024/01/26 03:43:11;;;;;;;15.10;7.90;;;;;;;2.19;100.00;98469.83;106975;1280;22563;-87
2024/01/26 03:45:39;;;;;;;12.70;7.10;;;;;;;2.19;100.00;98465.58;106782;1279;22629;-87
2024/01/26 03:48:07;;;;;;;15.30;7.20;;;;;;;2.22;100.00;98467.59;106836;1279;25465;-88
2024/01/26 03:50:36;;;;;;;14.50;7.70;;;;;;;2.23;100.00;98470.90;106852;1265;25350;-88
2024/01/26 03:53:04;;;;;;;15.50;8.00;;;;;;;2.22;100.00;98474.45;107022;1275;25434;-88
2024/01/26 03:55:32;;;;;;;15.40;8.00;;;;;;;2.19;100.00;98473.84;107259;1279;22740;-89
2024/01/26 03:58:00;;;;;;;14.30;6.90;;;;;;;2.18;100.00;98479.58;106967;1273;23264;-86
2024/01/26 04:00:28;;;;;;;17.30;7.30;;;;;;;2.18;100.00;98479.14;106919;1280;22563;-88
2024/01/26 04:02:56;;;;;;;16.20;7.00;;;;;;;2.17;100.00;98479.02;106920;1280;25369;-90
2024/01/26 04:05:24;;;;;;;15.20;7.20;;;;;;;2.16;100.00;98480.22;106909;1280;22496;-89
2024/01/26 04:07:52;;;;;;;13.80;8.10;;;;;;;2.17;100.00;98479.02;106935;1278;25438;-88
2024/01/26 04:10:20;;;;;;;16.50;7.80;;;;;;;2.14;100.00;98480.79;106988;1280;22579;-88
2024/01/26 04:12:48;;;;;;;14.50;8.00;;;;;;;2.13;100.00;98485.09;107227;1281;22544;-88
2024/01/26 04:15:16;;;;;;;14.60;7.30;;;;;;;2.11;100.00;98483.98;107697;1273;22499;-88
2024/01/26 04:17:44;;;;;;;15.40;7.50;;;;;;;2.13;100.00;98490.45;107952;1276;22766;-88
2024/01/26 04:20:12;;;;;;;15.20;9.00;;;;;;;2.13;100.00;98499.45;107309;1278;22547;-90
2024/01/26 04:22:42;;;;;;;12.90;7.90;;;;;;;2.14;100.00;98503.50;107427;1280;23934;-88
2024/01/26 04:25:10;;;;;;;13.80;7.90;;;;;;;2.14;100.00;98502.23;107530;1276;24164;-85
2024/01/26 04:27:38;;;;;;;19.10;8.10;;;;;;;2.13;100.00;98506.89;109346;1261;22504;-85
2024/01/26 04:30:07;;;;;;;15.70;7.70;;;;;;;2.13;100.00;98503.01;106980;1280;24280;-85
2024/01/26 04:32:36;;;;;;;11.00;6.80;;;;;;;2.13;100.00;98503.51;106838;1280;25466;-86
2024/01/26 04:35:05;;;;;;;17.10;7.40;;;;;;;2.14;100.00;98503.49;106852;1279;22635;-86
2024/01/26 04:37:33;;;;;;;13.90;8.10;;;;;;;2.12;100.00;98507.29;106926;1280;22544;-84
2024/01/26 04:40:01;;;;;;;12.70;6.70;;;;;;;2.14;100.00;98510.52;106865;1273;22582;-85
2024/01/26 04:42:29;;;;;;;15.60;8.20;;;;;;;2.12;100.00;98510.52;106805;1280;22485;-87
2024/01/26 04:44:57;;;;;;;14.00;7.90;;;;;;;2.10;100.00;98517.30;106933;1280;24307;-88
2024/01/26 04:47:25;;;;;;;16.30;8.20;;;;;;;2.10;100.00;98517.39;106889;1281;22629;-88
2024/01/26 04:49:53;;;;;;;16.30;6.80;;;;;;;2.10;100.00;98516.06;106847;1281;22545;-86
2024/01/26 04:52:21;;;;;;;14.30;7.60;;;;;;;2.11;100.00;98519.33;106868;1273;22541;-89
2024/01/26 04:54:49;;;;;;;13.40;6.60;;;;;;;2.11;100.00;98522.64;106832;1269;23360;-89
2024/01/26 04:57:18;;;;;;;14.60;7.30;;;;;;;2.12;100.00;98520.24;106814;1266;25284;-86
2024/01/26 04:59:46;;;;;;;13.20;7.30;;;;;;;2.10;100.00;98523.52;106768;1280;25313;-87
2024/01/26 05:02:14;;;;;;;13.30;7.50;;;;;;;2.10;100.00;98521.60;106807;1273;22568;-86
2024/01/26 05:04:43;;;;;;;14.30;9.60;;;;;;;2.11;100.00;98521.21;106818;1276;22543;-87
2024/01/26 05:07:12;;;;;;;18.30;13.70;;;;;;;2.09;100.00;98522.95;106844;1267;22752;-86
2024/01/26 05:09:44;;;;;;;45.60;37.70;;;;;;;2.06;100.00;98525.50;106754;1280;22544;-86
2024/01/26 05:12:16;;;;;;;44.20;34.30;;;;;;;2.06;100.00;98527.33;106904;1280;24202;-87
2024/01/26 05:14:44;;;;;;;39.30;32.20;;;;;;;2.06;100.00;98534.79;106943;1281;23899;-89
2024/01/26 05:17:12;;;;;;;24.50;18.20;;;;;;;2.07;100.00;98538.41;107432;1281;22668;-88
2024/01/26 05:19:40;;;;;;;31.10;26.20;;;;;;;2.04;100.00;98533.09;107686;1280;22615;-87
2024/01/26 05:22:08;;;;;;;27.40;23.30;;;;;;;2.04;100.00;98534.48;106939;1280;22574;-89
2024/01/26 05:24:36;;;;;;;22.10;16.10;;;;;;;2.05;100.00;98538.60;106950;1280;24270;-87
2024/01/26 05:27:04;;;;;;;22.50;18.10;;;;;;;2.02;100.00;98540.17;106793;1280;25508;-86
2024/01/26 05:29:32;;;;;;;21.10;15.10;;;;;;;2.04;100.00;98539.35;106844;1280;22544;-87
2024/01/26 05:32:00;;;;;;;17.50;11.50;;;;;;;2.03;100.00;98538.65;106744;1276;22547;-85
2024/01/26 05:34:28;;;;;;;17.00;10.60;;;;;;;2.01;100.00;98538.29;106729;1281;22750;-86
2024/01/26 05:36:56;;;;;;;14.80;10.30;;;;;;;2.00;100.00;98540.02;106823;1274;25389;-89
2024/01/26 05:39:28;;;;;;;16.50;8.80;;;;;;;1.99;100.00;98540.45;106788;1270;22590;-86
2024/01/26 05:41:56;;;;;;;15.00;9.00;;;;;;;1.97;100.00;98536.05;106970;1280;23522;-86
2024/01/26 05:44:24;;;;;;;14.40;9.30;;;;;;;1.96;100.00;98539.64;106899;1273;23323;-86
2024/01/26 05:46:53;;;;;;;14.30;9.90;;;;;;;1.95;100.00;98543.34;106861;1274;25602;-86
2024/01/26 05:49:21;;;;;;;17.40;11.40;;;;;;;1.95;100.00;98537.45;107031;1266;22539;-89
2024/01/26 05:51:49;;;;;;;17.20;10.50;;;;;;;1.92;100.00;98534.17;106897;1280;25006;-86
2024/01/26 05:54:17;;;;;;;13.70;9.20;;;;;;;1.94;100.00;98537.78;107051;1280;25896;-89
2024/01/26 05:56:45;;;;;;;17.90;10.90;;;;;;;1.95;100.00;98536.86;107116;1280;24301;-89
2024/01/26 05:59:13;;;;;;;18.60;11.10;;;;;;;1.96;100.00;98535.30;107180;1279;22586;-89
2024/01/26 06:01:43;;;;;;;18.30;10.10;;;;;;;1.96;100.00;98540.00;109727;1276;24495;-88
2024/01/26 06:04:11;;;;;;;17.90;11.90;;;;;;;1.93;100.00;98544.66;107694;1280;22667;-88
2024/01/26 06:06:39;;;;;;;20.50;12.40;;;;;;;1.89;100.00;98549.83;106743;1281;22610;-87
2024/01/26 06:09:10;;;;;;;17.60;11.50;;;;;;;1.88;100.00;98556.26;107191;1278;22619;-87
2024/01/26 06:11:44;;;;;;;19.10;11.90;;;;;;;1.91;100.00;98557.98;107153;1281;22582;-89
2024/01/26 06:14:12;;;;;;;15.90;11.50;;;;;;;1.89;100.00;98550.58;106925;1265;22536;-86
2024/01/26 06:16:40;;;;;;;15.70;11.20;;;;;;;1.90;100.00;98553.34;106992;1280;22559;-90
2024/01/26 06:19:08;;;;;;;18.40;12.00;;;;;;;1.90;100.00;98551.59;107027;1269;22540;-89
2024/01/26 06:21:38;;;;;;;22.70;10.90;;;;;;;1.88;100.00;98556.05;106990;1280;22654;-88
2024/01/26 06:24:06;;;;;;;17.50;10.50;;;;;;;1.86;100.00;98555.86;107005;1280;24233;-90
2024/01/26 06:26:34;;;;;;;19.80;11.30;;;;;;;1.85;100.00;98555.61;106963;1279;25647;-88
2024/01/26 06:29:03;;;;;;;17.30;10.40;;;;;;;1.82;100.00;98547.08;107007;1280;22632;-90
2024/01/26 06:31:32;;;;;;;18.90;11.20;;;;;;;1.88;100.00;98551.85;108362;1280;22560;-91
2024/01/26 06:34:00;;;;;;;18.00;11.80;;;;;;;1.89;100.00;98554.00;107372;1280;22583;-89
2024/01/26 06:36:28;;;;;;;19.90;11.00;;;;;;;1.92;100.00;98557.40;106826;1280;22560;-86
2024/01/26 06:38:56;;;;;;;17.80;11.30;;;;;;;1.93;100.00;98561.84;106781;1280;23483;-88
2024/01/26 06:41:24;;;;;;;17.90;10.40;;;;;;;1.92;100.00;98558.77;106871;1273;24206;-88
2024/01/26 06:43:52;;;;;;;15.00;10.40;;;;;;;1.92;100.00;98558.34;106842;1277;24240;-87
2024/01/26 06:46:22;;;;;;;16.30;10.40;;;;;;;1.89;100.00;98559.98;106844;1274;25386;-88
2024/01/26 06:48:51;;;;;;;16.60;10.10;;;;;;;1.92;100.00;98562.06;107673;1280;25233;-89
2024/01/26 06:51:19;;;;;;;19.00;12.50;;;;;;;1.92;100.00;98560.58;107209;1280;25236;-88
2024/01/26 06:53:48;;;;;;;17.60;11.40;;;;;;;1.91;100.00;98561.22;106864;1280;23941;-87
2024/01/26 06:56:16;;;;;;;25.40;12.40;;;;;;;1.94;100.00;98564.77;107021;1280;22577;-88
2024/01/26 06:58:45;;;;;;;18.10;12.20;;;;;;;1.94;100.00;98569.96;106855;1276;24371;-86
2024/01/26 07:01:14;;;;;;;21.80;13.50;;;;;;;1.94;100.00;98579.30;106912;1266;22602;-86
2024/01/26 07:03:42;;;;;;;21.40;13.30;;;;;;;1.93;100.00;98574.75;106981;1280;25409;-89
2024/01/26 07:06:10;;;;;;;26.30;13.50;;;;;;;1.92;100.00;98578.70;106977;1273;22550;-85
2024/01/26 07:08:38;;;;;;;19.50;12.60;;;;;;;1.92;100.00;98579.36;106989;1273;25557;-85
2024/01/26 07:11:11;;;;;;;19.20;11.00;;;;;;;1.95;100.00;98580.61;106835;1267;22548;-88
2024/01/26 07:13:39;;;;;;;22.20;13.40;;;;;;;2.00;100.00;98584.30;107079;1269;25412;-89
2024/01/26 07:16:08;;;;;;;28.30;16.50;;;;;;;2.01;100.00;98584.10;107241;1276;22578;-88
2024/01/26 07:18:36;;;;;;;17.70;11.50;;;;;;;1.99;100.00;98581.38;107423;1280;25210;-89
2024/01/26 07:21:07;;;;;;;17.20;11.00;;;;;;;2.01;100.00;98584.10;107453;1274;22762;-88
2024/01/26 07:23:35;;;;;;;22.20;13.00;;;;;;;1.98;100.00;98584.55;107647;1273;22541;-88
2024/01/26 07:26:03;;;;;;;21.40;13.50;;;;;;;1.94;100.00;98583.98;107502;1280;22661;-89
2024/01/26 07:28:31;;;;;;;20.70;13.00;;;;;;;1.94;100.00;98584.42;107106;1280;22553;-90
2024/01/26 07:30:59;;;;;;;20.00;13.20;;;;;;;1.95;100.00;98585.48;106912;1279;22543;-89
2024/01/26 07:33:27;;;;;;;20.50;12.50;;;;;;;1.95;100.00;98588.80;108094;1280;22094;-88
2024/01/26 07:40:12;;;;;;;16.10;10.10;;;;;;;2.00;100.00;98595.55;106991;1280;25386;-88
2024/01/26 07:42:40;;;;;;;18.70;10.90;;;;;;;2.02;100.00;98594.42;106943;1280;24197;-88
2024/01/26 07:45:09;;;;;;;24.50;13.50;;;;;;;2.01;100.00;98585.31;106861;1278;24353;-87
2024/01/26 07:47:37;;;;;;;17.60;10.80;;;;;;;2.02;100.00;98584.00;107205;1279;22619;-89
2024/01/26 07:50:05;;;;;;;17.20;9.90;;;;;;;2.05;100.00;98584.04;107971;1274;22621;-92
2024/01/26 07:52:34;;;;;;;15.70;10.30;;;;;;;2.02;100.00;98576.02;109447;1273;22632;-85
2024/01/26 07:55:02;;;;;;;17.20;10.70;;;;;;;2.09;100.00;98572.33;108588;1280;22552;-86
2024/01/26 07:57:30;;;;;;;18.40;11.80;;;;;;;2.12;100.00;98577.32;107215;1279;22539;-85
2024/01/26 07:59:58;;;;;;;19.80;13.80;;;;;;;2.14;100.00;98578.86;107015;1266;23462;-85
2024/01/26 08:02:26;;;;;;;25.10;13.30;;;;;;;2.17;100.00;98582.34;106956;1280;22533;-84
2024/01/26 08:04:54;;;;;;;21.30;14.00;;;;;;;2.16;100.00;98570.45;106910;1277;25248;-83
2024/01/26 08:07:23;;;;;;;21.40;13.80;;;;;;;2.20;100.00;98576.48;106845;1266;24872;-89
2024/01/26 08:09:51;;;;;;;43.50;25.70;;;;;;;2.22;100.00;98573.11;108183;1278;23902;-87
2024/01/26 08:12:20;;;;;;;37.80;20.80;;;;;;;2.28;100.00;98569.59;107145;1274;22544;-88
2024/01/26 08:15:06;;;;;;;25.60;15.30;;;;;;;2.34;100.00;98573.91;107165;1267;22600;-90
2024/01/26 08:17:34;;;;;;;18.00;12.40;;;;;;;2.36;100.00;98578.13;107210;1265;25418;-89
2024/01/26 08:20:03;;;;;;;19.30;13.20;;;;;;;2.39;100.00;98580.26;107111;1266;24096;-87
2024/01/26 08:22:32;;;;;;;20.00;13.10;;;;;;;2.41;100.00;98578.79;107193;1278;25350;-87
2024/01/26 08:25:00;;;;;;;20.20;15.10;;;;;;;2.43;100.00;98575.89;106973;1273;25390;-86
2024/01/26 08:27:29;;;;;;;21.30;15.50;;;;;;;2.43;100.00;98580.48;107175;1257;22540;-87
2024/01/26 08:29:57;;;;;;;17.40;12.90;;;;;;;2.40;100.00;98577.90;107246;1280;22540;-87
2024/01/26 08:32:26;;;;;;;17.70;12.30;;;;;;;2.42;100.00;98576.31;107271;1269;24192;-86
2024/01/26 08:34:54;;;;;;;18.90;13.00;;;;;;;2.44;100.00;98576.89;107060;1269;25370;-88
2024/01/26 08:37:23;;;;;;;19.50;12.60;;;;;;;2.50;100.00;98582.13;106953;1279;25557;-86
2024/01/26 08:39:51;;;;;;;30.30;16.50;;;;;;;2.52;100.00;98581.23;106952;1273;26677;-88
2024/01/26 08:42:19;;;;;;;19.00;13.30;;;;;;;2.55;100.00;98581.77;106952;1272;25479;-87
2024/01/26 08:44:51;;;;;;;22.60;14.20;;;;;;;2.54;100.00;98576.55;106910;1280;22593;-85
2024/01/26 08:47:19;;;;;;;20.90;13.00;;;;;;;2.53;100.00;98578.75;106954;1275;22647;-87
2024/01/26 08:49:47;;;;;;;22.60;15.10;;;;;;;2.54;100.00;98582.14;106904;1273;25495;-88
2024/01/26 08:52:17;;;;;;;21.80;13.70;;;;;;;2.51;100.00;98586.36;106989;1269;25504;-87
2024/01/26 08:54:45;;;;;;;19.20;13.40;;;;;;;2.56;100.00;98586.48;107004;1266;23444;-87
2024/01/26 08:57:13;;;;;;;17.40;13.00;;;;;;;2.61;100.00;98589.98;107044;1275;22668;-86
2024/01/26 08:59:44;;;;;;;23.20;14.40;;;;;;;2.64;100.00;98591.31;107057;1279;22544;-89
2024/01/26 09:02:12;;;;;;;21.00;14.00;;;;;;;2.68;100.00;98597.04;107013;1266;26499;-89
2024/01/26 09:04:40;;;;;;;17.80;12.40;;;;;;;2.69;100.00;98590.61;107121;1270;23896;-90
2024/01/26 09:07:08;;;;;;;31.50;19.10;;;;;;;2.69;100.00;98595.36;107873;1276;22940;-92
2024/01/26 09:09:38;;;;;;;32.10;17.30;;;;;;;2.66;100.00;98588.58;109969;1274;22570;-89
2024/01/26 09:12:07;;;;;;;17.40;12.00;;;;;;;2.73;100.00;98593.27;109158;1273;22924;-92
2024/01/26 09:14:35;;;;;;;19.20;12.70;;;;;;;2.74;100.00;98590.94;107738;1280;25983;-91
2024/01/26 09:17:03;;;;;;;23.90;15.10;;;;;;;2.79;100.00;98574.67;107718;1266;22789;-89
2024/01/26 09:19:31;;;;;;;22.60;14.80;;;;;;;2.88;100.00;98580.10;107793;1278;24196;-89
2024/01/26 09:21:59;;;;;;;21.00;14.20;;;;;;;2.94;100.00;98580.85;108052;1278;22776;-89
2024/01/26 09:24:27;;;;;;;23.20;15.70;;;;;;;2.95;100.00;98580.94;108118;1280;22555;-92
2024/01/26 09:26:56;;;;;;;23.10;16.40;;;;;;;2.96;100.00;98577.92;108396;1265;24230;-92
2024/01/26 09:29:26;;;;;;;20.00;13.70;;;;;;;3.00;100.00;98578.58;107792;1280;23889;-92
2024/01/26 09:31:56;;;;;;;26.20;16.80;;;;;;;3.02;100.00;98579.93;107607;1278;22552;-92
2024/01/26 09:34:26;;;;;;;22.30;15.80;;;;;;;3.06;100.00;98583.29;107323;1260;24162;-91
2024/01/26 09:36:54;;;;;;;22.60;16.60;;;;;;;3.09;100.00;98580.66;107228;1270;24345;-91
2024/01/26 09:39:24;;;;;;;29.50;21.00;;;;;;;3.10;100.00;98577.85;107257;1280;22552;-92
2024/01/26 09:41:53;;;;;;;18.30;12.60;;;;;;;3.10;100.00;98579.83;107074;1269;24110;-87
2024/01/26 09:44:21;;;;;;;24.40;14.40;;;;;;;3.09;100.00;98579.54;107022;1280;22569;-90
2024/01/26 09:46:50;;;;;;;19.50;15.10;;;;;;;3.09;100.00;98574.27;107868;1280;23744;-92
2024/01/26 09:49:19;;;;;;;20.70;13.50;;;;;;;3.15;100.00;98572.54;107642;1280;25948;-90
2024/01/26 09:51:48;;;;;;;26.70;16.80;;;;;;;3.19;100.00;98567.61;107089;1275;22537;-88
2024/01/26 09:54:19;;;;;;;29.10;18.20;;;;;;;3.18;100.00;98570.52;107060;1272;165840;-88
2024/01/26 09:56:50;;;;;;;22.30;12.30;;;;;;;3.15;100.00;98565.29;107138;1273;25487;-89
2024/01/26 09:59:19;;;;;;;16.60;8.90;;;;;;;3.15;100.00;98564.33;107789;1280;25433;-88
2024/01/26 10:01:48;;;;;;;13.60;7.70;;;;;;;3.09;100.00;98562.13;107436;1273;25437;-90
2024/01/26 10:04:17;;;;;;;15.10;8.10;;;;;;;3.11;100.00;98561.86;107430;1272;22674;-92
2024/01/26 10:06:49;;;;;;;15.70;8.80;;;;;;;3.09;100.00;98560.69;108161;1265;22544;-91
2024/01/26 10:09:17;;;;;;;22.00;15.70;;;;;;;3.09;100.00;98556.28;109092;1265;25262;-92
2024/01/26 10:11:46;;;;;;;19.80;12.70;;;;;;;3.12;100.00;98555.70;107289;1265;22586;-88
2024/01/26 10:14:23;;;;;;;22.90;15.90;;;;;;;3.11;100.00;98557.02;107184;1279;25408;-90
2024/01/26 10:16:59;;;;;;;22.50;14.80;;;;;;;3.13;100.00;98551.98;107374;1266;22606;-87
2024/01/26 10:19:28;;;;;;;22.30;14.50;;;;;;;3.13;100.00;98546.34;107184;1270;22556;-88
2024/01/26 10:21:59;;;;;;;22.00;13.10;;;;;;;3.13;100.00;98546.77;106976;1268;24381;-88
2024/01/26 10:24:28;;;;;;;26.30;18.10;;;;;;;3.14;100.00;98547.91;106927;1275;25345;-88
2024/01/26 10:26:57;;;;;;;27.80;20.40;;;;;;;3.14;100.00;98537.90;107128;1273;22608;-84
2024/01/26 10:29:25;;;;;;;27.20;19.00;;;;;;;3.17;100.00;98537.73;106929;1262;22719;-85
2024/01/26 10:31:54;;;;;;;31.90;21.70;;;;;;;3.15;100.00;98532.64;107092;1275;22538;-91
2024/01/26 10:34:26;;;;;;;28.30;19.30;;;;;;;3.16;100.00;98534.59;106985;1278;25418;-87
2024/01/26 10:37:00;;;;;;;19.30;13.90;;;;;;;3.17;100.00;98533.54;107109;1276;22598;-80
2024/01/26 10:39:38;;;;;;;24.90;14.70;;;;;;;3.18;100.00;98530.58;106985;1272;23199;-85
2024/01/26 10:42:10;;;;;;;23.60;15.50;;;;;;;3.21;100.00;98525.52;107142;1279;22542;-85
2024/01/26 10:44:39;;;;;;;23.00;13.20;;;;;;;3.23;100.00;98519.71;108145;1262;22540;-82
2024/01/26 10:47:09;;;;;;;20.60;13.10;;;;;;;3.22;100.00;98516.95;107428;1280;22948;-82
2024/01/26 10:49:39;;;;;;;20.90;12.80;;;;;;;3.25;100.00;98511.16;107268;1280;23309;-84
2024/01/26 10:52:10;;;;;;;21.60;13.50;;;;;;;3.26;100.00;98503.84;107035;1280;24386;-85
2024/01/26 10:54:39;;;;;;;22.90;14.30;;;;;;;3.25;100.00;98509.93;106926;1258;24284;-83
2024/01/26 10:57:07;;;;;;;28.00;19.90;;;;;;;3.22;100.00;98503.91;106808;1279;22541;-85
2024/01/26 10:59:39;;;;;;;22.40;13.80;;;;;;;3.13;100.00;98491.90;107029;1275;22670;-84
2024/01/26 11:02:12;;;;;;;23.50;13.20;;;;;;;3.18;100.00;98499.96;106890;1281;22766;-84
2024/01/26 11:04:42;;;;;;;24.60;13.80;;;;;;;3.23;100.00;98495.45;107064;1280;25342;-87
2024/01/26 11:07:10;;;;;;;21.60;14.00;;;;;;;3.21;100.00;98492.50;107029;1278;22922;-86
2024/01/26 11:09:38;;;;;;;21.10;14.90;;;;;;;3.21;100.00;98492.39;106998;1280;22636;-88
2024/01/26 11:12:19;;;;;;;21.70;14.30;;;;;;;3.20;100.00;98485.81;107026;1273;24233;-84
2024/01/26 11:15:01;;;;;;;19.10;12.50;;;;;;;3.22;100.00;98482.33;106938;1274;25476;-85
2024/01/26 11:17:50;;;;;;;32.00;14.80;;;;;;;3.23;100.00;98478.70;106887;1280;24254;-85
2024/01/26 11:20:30;;;;;;;21.90;12.60;;;;;;;3.24;100.00;98474.52;107037;1270;24304;-85
2024/01/26 11:23:06;;;;;;;22.70;15.60;;;;;;;3.25;100.00;98475.84;107095;1280;24302;-84
2024/01/26 11:25:40;;;;;;;33.20;20.20;;;;;;;3.28;100.00;98477.57;107618;1280;22613;-86
2024/01/26 11:28:09;;;;;;;38.30;21.00;;;;;;;3.34;100.00;98467.65;107304;1257;24289;-83
2024/01/26 11:30:39;;;;;;;44.20;21.80;;;;;;;3.43;100.00;98459.02;107109;1280;23185;-84